EDLN/MGL METAR and TAF weather

Enter ICAO airport designator
Station Type Date Time Source
EDLN METAR 2021/09/24 00:20 UTC NOAA

EDLN 240020Z AUTO 28004KT 230V320 9999 // OVC015/// 16/14 Q1017


Station Type Date Time Source
EDLN Decoded METAR 2021/09/24 00:20 UTC NOAA

Monchengladbach, Germany (EDLN) 51-13-49N 006-30-16E
Sep 23, 2021 - 08:20 PM EDT / 2021.09.24 0020 UTC
Wind: from the W (280 degrees) at 5 MPH (4 KT) (direction variable):0
Visibility: greater than 7 mile(s):0
Sky conditions: overcast
Temperature: 60 F (16 C)
Dew Point: 57 F (14 C)
Relative Humidity: 87%
Pressure (altimeter): 30.03 in. Hg (1017 hPa)
ob: EDLN 240020Z AUTO 28004KT 230V320 9999 // OVC015/// 16/14 Q1017
cycle: 0

Station Type Date Time Source
EDLN TAF 2010/02/22 14:20 UTC NOAA

METAR EDLN 221420Z 18010G20KT 090V240 9999 SCT030 BKN045 11/06 Q0986
RMK ATIS R=

Example: see airport list